This is the latest recevied weather packets stored in our database for station/object KG4GJX. If no packets are shown the sender has not sent any weather packets the latest 10 day(s).
| Time | Temp. | Humidity | Pressure | Rain* | Wind** | Luminosity | Snow |
|---|---|---|---|---|---|---|---|
| 1788056670 | 22.78° C | 100% | 1020.9 hPa | 0 mm | - | - | - |
| 1788054688 | 22.78° C | 100% | 1020.6 hPa | 0 mm | - | - | - |
| 1788054025 | 23.33° C | 100% | 1020.3 hPa | 0 mm | - | - | - |
| 1788053363 | 23.33° C | 99% | 1020.3 hPa | 0 mm | - | - | - |
| 1788052700 | 23.33° C | 98% | 1019.9 hPa | 0 mm | - | - | - |
| 1788052038 | 23.89° C | 97% | 1019.9 hPa | 0 mm | - | - | - |
| 1788051375 | 24.44° C | 95% | 1019.6 hPa | 0 mm | - | - | - |
| 1788050713 | 24.44° C | 93% | 1019.6 hPa | 0 mm | - | - | - |
| 1788050051 | 25° C | 91% | 1019.6 hPa | 0 mm | - | - | - |
| 1788049389 | 26.11° C | 87% | 1019.6 hPa | 0 mm | - | - | - |
| 1788048726 | 26.11° C | 86% | 1019.6 hPa | 0 mm | - | - | - |
| 1788048066 | 26.67° C | 83% | 1019.6 hPa | 0 mm | - | - | - |
| 1788047401 | 27.22° C | 82% | 1019.6 hPa | 0 mm | - | - | - |
| 1788046738 | 27.78° C | 77% | 1019.9 hPa | 0 mm | - | - | - |
| 1788046076 | 28.33° C | 75% | 1019.6 hPa | 0 mm | - | - | - |
| 1788045413 | 28.89° C | 72% | 1019.6 hPa | 0 mm | - | - | - |
| 1788044751 | 28.89° C | 69% | 1019.6 hPa | 0 mm | - | - | - |
| 1788044088 | 29.44° C | 69% | 1019.6 hPa | 0 mm | - | - | - |
| 1788043426 | 30.56° C | 67% | 1019.6 hPa | 0 mm | - | - | - |
| 1788042764 | 30.56° C | 65% | 1019.6 hPa | 0 mm | - | - | - |
| 1788042101 | 31.11° C | 65% | 1019.6 hPa | 0 mm | - | - | - |
| 1788041439 | 30.56° C | 69% | 1019.6 hPa | 0 mm | - | - | - |
| 1788040776 | 30° C | 73% | 1019.6 hPa | 0 mm | - | - | - |
| 1788040113 | 30° C | 71% | 1019.6 hPa | 0 mm | - | - | - |
| 1788039451 | 30.56° C | 70% | 1019.6 hPa | 0 mm | - | - | - |
* Rain latest hour (hover to see other rain measurements)
** Current wind speed in m/s (hover to see current wind gust speed)